x

East Gulf - 208 Mn West Of Naples, Fl (42003) Wave Buoy

11:50pm - Wed 1st Apr 2015 All times are EDT. -4 hours from GMT.

  • Sig Wave height 2.3ft
  • Swell Direction
  • Peak Period 6s
  • Average Period 5s
  • Wind
    11mph, 13mph gusts
  • Sea Temp 74°f
  • Air Temp 72°f
  • Sea Pressure 1020.4mb
  • East Gulf - 208 Mn West Of Naples, Fl
  • East Gulf - 208 Mn West Of Naples, Fl

More Historic Weather Station data

Upgrade to MSW Pro to gain access to the past 30 days of data for over 8000 Wavebouys and Weather Stations around the globe.

Join Pro

Comparision Forecast

View Surf forecast
   
Wed 04/01 11:50pm 2.5ft 6s 5s 11 13 mph 1020.4mb 74f 72f
10:50pm 2.5ft 6s 5s 11 13 mph 1020.4mb 74f 73f
9:50pm 2.5ft 6s 5s 11 13 mph 1019.9mb 74f 73f
8:50pm 2.5ft 6s 5s 11
mph
1019.2mb 74f 73f
7:50pm 2.5ft 6s 5s 11 13 mph 1018.9mb 75f 73f
6:50pm 2.5ft 6s 5s 9 13 mph 1018.7mb 75f 73f
5:50pm 2ft 6s 5s 11 13 mph 1018.8mb 75f 73f
4:50pm 2ft 6s 5s 11 13 mph 1019mb 75f 73f
3:50pm 2ft 7s 5s 11 13 mph 1019.6mb 75f 73f
2:50pm 2ft 7s 5s 11 13 mph 1020.1mb 75f 73f
1:50pm 2ft 7s 4s 13 16 mph 1020.4mb 75f 73f
12:50pm 2ft 7s 4s 13 16 mph 1020.8mb 74f 73f
11:50am 1.6ft 7s 4s 13 16 mph 1021mb 74f 73f
10:50am 1.6ft 8s 5s 13 16 mph 1020.8mb 74f 73f
9:50am 1.6ft 8s 5s 11 13 mph 1020.4mb 74f 72f
8:50am 1.6ft 8s 5s 9 11 mph 1020.2mb 74f 72f
7:50am 1.3ft 8s 5s 9 11 mph 1019.6mb 75f 72f
6:50am 1.3ft 6s 5s 9
mph
1018.8mb 74f 71f
5:50am 1.6ft 8s 6s 7 9 mph 1018.4mb 74f 71f
4:50am 1.6ft 7s 5s 7 9 mph 1018.7mb 74f 71f
3:50am 1.6ft 7s 5s 4 7 mph 1019mb 74f 71f
2:50am 1.6ft 7s 5s 7 9 mph 1019.6mb 74f 72f
1:50am 1.6ft 8s 5s 7 9 mph 1020.1mb 74f 72f
12:50am 1.6ft 8s 5s 7 9 mph 1020.6mb 74f 72f
Tue 03/31 11:50pm 1.6ft 6s 5s 7 11 mph 1020.7mb 74f 72f
10:50pm 1.6ft 8s 5s 7 9 mph 1020.9mb 75f 73f
9:50pm 1.6ft 8s 5s 7 9 mph 1020.3mb 75f 73f
8:50pm 1.6ft 8s 5s 9 11 mph 1019.7mb 75f 73f
7:50pm 1.6ft 8s 5s 9 11 mph 1019.6mb 75f 73f
6:50pm 1.6ft 8s 5s 9 11 mph 1019.6mb 75f 73f
5:50pm 1.3ft 8s 5s 7 9 mph 1019.7mb 75f 73f
4:50pm 1.3ft 6s 5s 7 11 mph 1019.6mb 75f 73f
3:50pm 1.3ft 8s 5s 7 9 mph 1020mb 75f 73f
2:50pm 1.6ft 7s 5s 7 9 mph 1021mb 75f 72f
1:50pm 1.3ft 7s 5s 7 9 mph 1021.9mb 75f 72f
12:50pm 1.3ft 7s 5s 7 9 mph 1022.5mb 75f 72f
11:50am 1.3ft 6s 5s 7 9 mph 1022.5mb 74f 72f
10:50am 1.6ft 8s 5s 7 9 mph 1022.2mb 74f 71f
9:50am 1.6ft 7s 5s 7 9 mph 1022mb 74f 72f
8:50am 1.3ft 7s 5s 4 7 mph 1021.6mb 74f 72f
7:50am 1.6ft 7s 5s 4 7 mph 1021.3mb 74f 71f
6:50am 1.6ft 7s 5s  -  2 mph 1020.8mb 74f 71f
5:50am 1.6ft 7s 5s 2 4 mph 1020.3mb 74f 71f
4:50am 1.6ft 7s 5s 2 4 mph 1020.5mb 74f 71f
3:50am 2ft 8s 5s 2 4 mph 1020.9mb 73f 71f
2:50am 1.6ft 5s 5s 4
mph
1021.5mb 73f 71f
1:50am 2ft 5s 5s 7
mph
1022.1mb 74f 71f
12:50am 2ft 5s 5s 7 9 mph 1022.9mb 74f 71f
Mon 03/30 11:50pm 2.5ft 5s 5s 7 9 mph 1023.5mb 74f 71f
10:50pm 2.5ft 5s 5s 7 9 mph 1023.7mb 74f 71f
9:50pm 2.5ft 6s 5s 9 11 mph 1023.4mb 74f 71f
8:50pm 2.5ft 6s 5s 11
mph
1023.1mb 74f 72f
7:50pm 2ft 5s 4s 11 13 mph 1022.7mb 74f 72f
6:50pm 2ft 4s 5s 9 11 mph 1022.6mb 74f 72f
5:50pm 1.6ft 4s 4s 11 13 mph 1022.6mb 75f 72f
4:50pm 1.6ft 7s 4s 7 11 mph 1023mb 75f 71f
3:50pm 1.6ft 8s 4s 9 11 mph 1023.5mb 75f 72f
2:50pm 2ft 5s 4s 7 9 mph 1024.2mb 75f 71f
1:50pm 2ft 5s 4s 7 9 mph 1024.8mb 75f 71f
12:50pm 2ft 5s 4s 7 9 mph 1025.1mb 74f 71f
11:50am 2.5ft 5s 4s 7 11 mph 1025.1mb 74f 71f
10:50am 2.5ft 5s 4s 9 11 mph 1024.7mb 74f 71f
9:50am 2.5ft 5s 4s 11 13 mph 1024.4mb 74f 71f
8:50am 2.5ft 5s 4s 11 16 mph 1023.8mb 74f 71f
7:50am 2.5ft 5s 4s 13 16 mph 1023.4mb 74f 70f
6:50am 2.5ft 5s 4s 16 18 mph 1022.8mb 73f 70f
5:50am 2.5ft 5s 4s 13 16 mph 1022.5mb 73f 71f
4:50am 3ft 5s 4s 13 18 mph 1022.8mb 73f 71f
3:50am 3ft 5s 4s 16 18 mph 1023.2mb 73f 71f
2:50am 2.5ft 5s 4s 16 18 mph 1024mb 73f 70f
1:50am 3ft 4s 4s 16 18 mph 1024.6mb 73f 70f
12:50am 3ft 4s 4s 16 20 mph 1025mb 73f 70f
Sun 03/29 11:50pm 3ft 4s 4s 18 20 mph 1025.2mb 73f 70f
10:50pm 3ft 4s 4s 18 22 mph 1025.3mb 74f 69f
9:50pm 2.5ft 4s 4s 20 22 mph 1024.8mb 74f 69f
8:50pm 2.5ft 4s 4s 16 20 mph 1024.8mb 74f 69f
7:50pm 2.5ft 4s 3s 16 20 mph 1024.9mb 74f 69f
6:50pm 2.5ft 4s 4s 16 18 mph 1024.5mb 74f 69f
5:50pm 2.5ft 4s 4s 18 22 mph 1024.3mb 74f 69f
4:50pm 2.5ft 4s 4s 16 18 mph 1024.8mb 74f 69f
3:50pm 2ft 3s 4s 16 18 mph 1025.3mb 74f 69f
2:50pm 2.5ft 3s 4s 16 18 mph 1025.8mb 74f 68f
1:50pm 2.5ft 3s 4s 16 18 mph 1026.5mb 74f 68f
12:50pm 2.5ft 5s 4s 16 18 mph 1027mb 74f 68f
11:50am 2.5ft 6s 4s 18 20 mph 1026.9mb 74f 68f
10:50am 2ft 6s 4s 18 20 mph 1026.7mb 74f 68f
9:50am 2.5ft 6s 4s 13 18 mph 1026.2mb 74f 68f
8:50am 2ft 6s 5s 11 16 mph 1025.6mb 74f 68f
7:50am 2.5ft 6s 5s 11 16 mph 1025.1mb 74f 67f
6:50am 2.5ft 6s 5s 11 13 mph 1024.3mb 74f 67f
5:50am 2.5ft 6s 5s 9 11 mph 1023.4mb 74f 67f